createdAt,value
2018-06-05T00:01:19.512Z,10.97
2018-06-05T00:03:48.060Z,9.90
2018-06-05T00:06:16.644Z,14.37
2018-06-05T00:08:45.164Z,11.63
2018-06-05T00:11:14.463Z,9.93
2018-06-05T00:13:43.692Z,10.73
2018-06-05T00:16:12.885Z,9.20
2018-06-05T00:18:41.415Z,11.03
2018-06-05T00:21:09.989Z,9.93
2018-06-05T00:23:38.172Z,9.97
2018-06-05T00:26:06.745Z,9.17
2018-06-05T00:28:34.936Z,13.30
2018-06-05T00:31:03.482Z,9.50
2018-06-05T00:33:32.650Z,10.13
2018-06-05T00:36:02.517Z,12.37
2018-06-05T00:38:30.746Z,13.43
2018-06-05T00:40:59.278Z,11.87
2018-06-05T00:43:27.500Z,13.20
2018-06-05T00:45:56.553Z,11.27
2018-06-05T00:48:25.638Z,15.60
2018-06-05T00:50:53.863Z,14.77
2018-06-05T00:53:22.444Z,10.73
2018-06-05T00:55:51.578Z,16.47
2018-06-05T00:58:22.031Z,12.20
2018-06-05T01:00:50.246Z,11.03
2018-06-05T01:03:18.813Z,14.00
2018-06-05T01:05:47.372Z,11.77
2018-06-05T01:08:15.621Z,13.90
2018-06-05T01:10:44.149Z,15.37
2018-06-05T01:13:13.403Z,9.63
2018-06-05T01:15:43.472Z,10.80
2018-06-05T01:18:12.057Z,15.00
2018-06-05T01:20:40.610Z,14.20
2018-06-05T01:23:08.860Z,16.50
2018-06-05T01:25:37.368Z,10.90
2018-06-05T01:28:05.584Z,11.80
2018-06-05T01:30:34.701Z,11.40
2018-06-05T01:33:03.297Z,12.23
2018-06-05T01:35:32.392Z,13.27
2018-06-05T01:38:00.977Z,11.90
2018-06-05T01:40:29.519Z,13.77
2018-06-05T01:42:59.002Z,11.20
2018-06-05T01:45:27.688Z,10.57
2018-06-05T01:47:55.933Z,15.87
2018-06-05T01:50:24.946Z,10.90
2018-06-05T01:52:54.609Z,14.30
2018-06-05T01:55:23.141Z,13.30
2018-06-05T01:57:52.174Z,9.07
2018-06-05T02:00:20.737Z,11.13
2018-06-05T02:02:49.648Z,15.27
2018-06-05T02:05:18.185Z,13.03
2018-06-05T02:07:47.361Z,13.87
2018-06-05T02:10:15.878Z,11.90
2018-06-05T02:12:44.449Z,12.83
2018-06-05T02:15:13.628Z,11.13
2018-06-05T02:17:43.101Z,12.80
2018-06-05T02:20:11.642Z,13.70
2018-06-05T02:22:40.218Z,13.30
2018-06-05T02:25:08.764Z,14.33
2018-06-05T02:27:37.305Z,13.70
2018-06-05T02:30:05.573Z,16.97
2018-06-05T02:32:34.123Z,15.23
2018-06-05T02:35:02.670Z,13.20
2018-06-05T02:37:32.028Z,12.70
2018-06-05T02:40:01.086Z,12.37
2018-06-05T02:42:29.658Z,10.23
2018-06-05T02:44:58.222Z,13.57
2018-06-05T02:47:27.577Z,10.67
2018-06-05T02:49:56.718Z,15.57
2018-06-05T02:52:24.945Z,14.60
2018-06-05T02:54:53.988Z,12.93
2018-06-05T02:57:22.180Z,14.37
2018-06-05T02:59:50.762Z,16.10
2018-06-05T03:02:19.300Z,16.10
2018-06-05T03:04:48.472Z,13.23
2018-06-05T03:07:16.986Z,13.90
2018-06-05T03:09:46.032Z,16.17
2018-06-05T03:12:15.065Z,11.07
2018-06-05T03:14:43.649Z,11.70
2018-06-05T03:17:12.181Z,15.37
2018-06-05T03:19:40.425Z,14.23
2018-06-05T03:22:09.817Z,11.53
2018-06-05T03:24:38.866Z,17.60
2018-06-05T03:27:07.397Z,12.10
2018-06-05T03:29:35.979Z,15.70
2018-06-05T03:32:04.558Z,14.30
2018-06-05T03:34:33.138Z,13.93
2018-06-05T03:37:01.700Z,11.03
2018-06-05T03:39:30.317Z,12.07
2018-06-05T03:41:58.872Z,11.43
2018-06-05T03:44:27.453Z,16.13
2018-06-05T03:46:56.040Z,16.97
2018-06-05T03:49:24.640Z,12.60
2018-06-05T03:51:53.201Z,13.77
2018-06-05T03:54:21.769Z,13.50
2018-06-05T03:56:50.313Z,13.87
2018-06-05T03:59:18.873Z,12.73
2018-06-05T04:01:47.437Z,14.20
2018-06-05T04:04:15.990Z,13.83
2018-06-05T04:06:44.555Z,14.23
2018-06-05T04:09:13.139Z,11.90
2018-06-05T04:11:41.669Z,14.57
2018-06-05T04:14:10.237Z,12.80
2018-06-05T04:16:38.429Z,12.33
2018-06-05T04:19:07.009Z,13.83
2018-06-05T04:21:35.613Z,12.37
2018-06-05T04:24:04.181Z,12.60
2018-06-05T04:26:32.764Z,13.73
2018-06-05T04:29:01.347Z,10.77
2018-06-05T04:31:29.945Z,12.70
2018-06-05T04:33:58.509Z,13.37
2018-06-05T04:36:27.074Z,14.70
2018-06-05T04:38:55.270Z,13.17
2018-06-05T04:41:23.830Z,11.40
2018-06-05T04:43:52.417Z,14.53
2018-06-05T04:46:20.647Z,10.43
2018-06-05T04:48:49.198Z,10.63
2018-06-05T04:51:17.781Z,16.37
2018-06-05T04:53:46.392Z,14.27
2018-06-05T04:56:14.954Z,13.27
2018-06-05T04:58:43.491Z,13.23
2018-06-05T05:01:13.806Z,15.60
2018-06-05T05:03:42.346Z,12.13
2018-06-05T05:06:10.958Z,11.87
2018-06-05T05:08:39.506Z,15.40
2018-06-05T05:11:14.238Z,16.00
2018-06-05T05:13:43.027Z,14.17
2018-06-05T05:16:11.712Z,17.60
2018-06-05T05:18:41.141Z,16.67
2018-06-05T05:21:09.777Z,14.73
2018-06-05T05:23:38.362Z,15.77
2018-06-05T05:26:06.941Z,18.07
2018-06-05T05:28:35.550Z,18.27
2018-06-05T05:31:03.961Z,16.63
2018-06-05T05:33:33.229Z,15.13
2018-06-05T05:36:01.644Z,15.40
2018-06-05T05:38:30.238Z,14.63
2018-06-05T05:40:59.596Z,14.43
2018-06-05T05:43:27.868Z,11.93
2018-06-05T05:45:56.319Z,13.53
2018-06-05T05:48:26.414Z,15.00
2018-06-05T05:50:55.128Z,10.80
2018-06-05T05:53:23.701Z,11.93
2018-06-05T05:55:53.120Z,13.53
2018-06-05T05:58:23.385Z,12.37
2018-06-05T06:00:52.917Z,14.00
2018-06-05T06:03:24.154Z,13.27
2018-06-05T06:05:55.208Z,13.63
2018-06-05T06:08:24.632Z,13.73
2018-06-05T06:10:53.445Z,10.07
2018-06-05T06:13:22.705Z,15.23
2018-06-05T06:15:51.606Z,15.73
2018-06-05T06:18:20.181Z,10.97
2018-06-05T06:20:48.782Z,15.27
2018-06-05T06:23:17.957Z,15.07
2018-06-05T06:25:46.552Z,15.83
2018-06-05T06:28:15.085Z,15.03
2018-06-05T06:30:43.790Z,13.17
2018-06-05T06:33:12.370Z,14.80
2018-06-05T06:35:41.090Z,16.43
2018-06-05T06:38:09.786Z,19.97
2018-06-05T06:40:39.339Z,16.03
2018-06-05T06:43:07.558Z,13.90
2018-06-05T06:45:36.129Z,13.53
2018-06-05T06:48:04.987Z,15.80
2018-06-05T06:50:33.212Z,16.00
2018-06-05T06:53:01.806Z,13.30
2018-06-05T06:55:30.374Z,18.47
2018-06-05T06:57:58.975Z,14.20
2018-06-05T07:00:27.525Z,16.33
2018-06-05T07:02:56.143Z,14.77
2018-06-05T07:05:24.729Z,15.27
2018-06-05T07:07:53.873Z,11.37
2018-06-05T07:10:22.704Z,13.90
2018-06-05T07:12:58.561Z,16.70
2018-06-05T07:15:27.171Z,17.93
2018-06-05T07:17:55.751Z,13.50
2018-06-05T07:20:24.298Z,11.93
2018-06-05T07:22:53.801Z,15.67
2018-06-05T07:25:22.365Z,13.47
2018-06-05T07:27:50.961Z,13.67
2018-06-05T07:30:19.539Z,13.47
2018-06-05T07:32:48.142Z,14.07
2018-06-05T07:35:17.295Z,16.40
2018-06-05T07:37:45.987Z,14.77
2018-06-05T07:40:14.541Z,16.90
2018-06-05T07:42:43.620Z,11.03
2018-06-05T07:45:12.410Z,20.77
2018-06-05T07:47:40.974Z,13.03
2018-06-05T07:50:10.296Z,15.67
2018-06-05T07:52:39.082Z,14.67
2018-06-05T07:55:07.624Z,19.10
2018-06-05T07:57:36.281Z,18.53
2018-06-05T08:00:05.121Z,14.97
2018-06-05T08:02:33.697Z,15.33
2018-06-05T08:05:02.252Z,15.57
2018-06-05T08:07:30.825Z,19.03
2018-06-05T08:09:59.458Z,14.07
2018-06-05T08:12:28.723Z,16.13
2018-06-05T08:14:57.260Z,16.53
2018-06-05T08:17:25.873Z,12.53
2018-06-05T08:19:54.473Z,14.83
2018-06-05T08:22:23.300Z,13.77
2018-06-05T08:24:51.872Z,18.00
2018-06-05T08:27:20.120Z,12.33
2018-06-05T08:29:48.748Z,16.13
2018-06-05T08:32:17.789Z,12.40
2018-06-05T08:34:46.681Z,14.17
2018-06-05T08:37:15.297Z,17.70
2018-06-05T08:39:43.492Z,15.77
2018-06-05T08:42:12.945Z,13.53
2018-06-05T08:44:41.678Z,15.60
2018-06-05T08:47:10.297Z,18.60
2018-06-05T08:49:39.765Z,13.60
2018-06-05T08:52:08.004Z,12.27
2018-06-05T08:54:36.589Z,14.17
2018-06-05T08:57:05.209Z,13.57
2018-06-05T08:59:33.814Z,12.83
2018-06-05T09:02:02.903Z,12.80
2018-06-05T09:04:31.509Z,12.93
2018-06-05T09:07:00.094Z,13.93
2018-06-05T09:09:28.783Z,14.10
2018-06-05T09:11:57.362Z,12.43
2018-06-05T09:14:25.941Z,17.23
2018-06-05T09:16:54.530Z,13.40
2018-06-05T09:19:23.228Z,12.63
2018-06-05T09:21:51.804Z,17.07
2018-06-05T09:24:20.401Z,15.17
2018-06-05T09:26:49.069Z,13.73
2018-06-05T09:29:17.656Z,11.07
2018-06-05T09:31:46.234Z,12.60
2018-06-05T09:34:14.852Z,10.90
2018-06-05T09:36:43.404Z,14.80
2018-06-05T09:39:20.106Z,13.93
2018-06-05T09:42:04.633Z,13.57
2018-06-05T09:44:33.523Z,12.57
2018-06-05T09:47:02.086Z,16.50
2018-06-05T09:49:30.717Z,10.93
2018-06-05T09:52:05.746Z,14.90
2018-06-05T09:54:34.339Z,13.97
2018-06-05T09:57:02.918Z,16.77
2018-06-05T09:59:31.529Z,13.30
2018-06-05T10:02:00.161Z,10.90
2018-06-05T10:04:28.747Z,14.37
2018-06-05T10:06:58.827Z,11.73
2018-06-05T10:09:29.482Z,11.77
2018-06-05T10:12:00.653Z,11.90
2018-06-05T10:14:34.201Z,10.97
2018-06-05T10:17:04.926Z,16.87
2018-06-05T10:19:33.486Z,13.17
2018-06-05T10:22:02.378Z,18.50
2018-06-05T10:24:31.071Z,9.97
2018-06-05T10:27:01.617Z,9.90
2018-06-05T10:29:30.312Z,12.80
2018-06-05T10:31:59.377Z,12.47
2018-06-05T10:34:27.950Z,12.70
2018-06-05T10:36:56.517Z,10.03
2018-06-05T10:39:25.105Z,12.47
2018-06-05T10:41:53.650Z,9.77
2018-06-05T10:44:22.220Z,8.73
2018-06-05T10:46:50.779Z,12.40
2018-06-05T10:49:19.925Z,9.30
2018-06-05T10:51:48.555Z,16.57
2018-06-05T10:54:17.097Z,15.33
2018-06-05T10:56:45.627Z,9.70
2018-06-05T10:59:15.433Z,15.50
2018-06-05T11:01:44.730Z,14.93
2018-06-05T11:04:13.361Z,10.63
2018-06-05T11:06:41.900Z,9.03
2018-06-05T11:09:10.582Z,9.47
2018-06-05T11:11:46.856Z,11.90
2018-06-05T11:14:15.653Z,10.90
2018-06-05T11:16:44.279Z,10.37
2018-06-05T11:19:12.893Z,10.00
2018-06-05T11:21:41.998Z,8.87
2018-06-05T11:24:10.687Z,10.47
2018-06-05T11:26:39.394Z,11.33
2018-06-05T11:29:08.086Z,11.43
2018-06-05T11:31:36.666Z,10.83
2018-06-05T11:34:06.184Z,11.20
2018-06-05T11:36:34.812Z,9.73
2018-06-05T11:39:03.461Z,11.60
2018-06-05T11:41:33.193Z,12.03
2018-06-05T11:44:01.861Z,7.93
2018-06-05T11:46:30.449Z,13.77
2018-06-05T11:48:59.989Z,15.80
2018-06-05T11:51:28.382Z,11.80
2018-06-05T11:53:56.644Z,12.07
2018-06-05T11:56:25.256Z,9.47
2018-06-05T11:58:53.988Z,8.47
2018-06-05T12:01:22.545Z,14.10
2018-06-05T12:03:51.099Z,9.20
2018-06-05T12:06:19.719Z,7.23
2018-06-05T12:08:54.729Z,7.73
2018-06-05T12:11:23.537Z,8.70
2018-06-05T12:13:52.090Z,8.30
2018-06-05T12:16:20.399Z,8.90
2018-06-05T12:18:48.961Z,10.67
2018-06-05T12:21:17.691Z,6.93
2018-06-05T12:23:46.878Z,7.87
2018-06-05T12:26:15.483Z,9.60
2018-06-05T12:28:44.049Z,12.00
2018-06-05T12:31:12.771Z,9.13
2018-06-05T12:33:41.359Z,10.67
2018-06-05T12:36:10.812Z,7.87
2018-06-05T12:38:39.367Z,7.47
2018-06-05T12:41:07.593Z,9.70
2018-06-05T12:43:37.252Z,7.57
2018-06-05T12:46:05.841Z,8.47
2018-06-05T12:48:35.061Z,7.53
2018-06-05T12:53:35.719Z,8.93
2018-06-05T12:56:04.258Z,8.03
2018-06-05T12:58:32.770Z,7.57
2018-06-05T13:01:01.349Z,7.63
2018-06-05T13:03:29.948Z,10.33
2018-06-05T13:05:58.525Z,8.13
2018-06-05T13:08:28.082Z,9.00
2018-06-05T13:10:59.601Z,11.03
2018-06-05T13:13:28.287Z,8.50
2018-06-05T13:15:56.869Z,9.33
2018-06-05T13:18:25.408Z,7.80
2018-06-05T13:20:53.994Z,7.93
2018-06-05T13:23:22.537Z,8.70
2018-06-05T13:25:51.135Z,9.27
2018-06-05T13:28:19.701Z,8.07
2018-06-05T13:30:48.255Z,8.17
2018-06-05T13:33:16.837Z,7.20
2018-06-05T13:35:45.386Z,11.30
2018-06-05T13:38:14.141Z,8.20
2018-06-05T13:40:42.765Z,8.57
2018-06-05T13:43:11.936Z,7.47
2018-06-05T13:45:40.686Z,9.20
2018-06-05T13:48:09.824Z,8.87
2018-06-05T13:50:39.416Z,11.90
2018-06-05T13:53:09.011Z,10.80
2018-06-05T13:55:37.575Z,9.13
2018-06-05T13:58:06.334Z,11.27
2018-06-05T14:00:34.897Z,10.57
2018-06-05T14:03:03.479Z,8.57
2018-06-05T14:05:32.055Z,10.50
2018-06-05T14:08:00.610Z,8.37
2018-06-05T14:10:29.151Z,8.20
2018-06-05T14:12:57.726Z,12.27
2018-06-05T14:15:26.289Z,7.47
2018-06-05T14:17:54.858Z,8.03
2018-06-05T14:20:23.401Z,7.77
2018-06-05T14:22:51.957Z,8.00
2018-06-05T14:25:20.489Z,8.80
2018-06-05T14:27:49.674Z,10.97
2018-06-05T14:30:17.865Z,10.20
2018-06-05T14:32:46.447Z,10.83
2018-06-05T14:35:14.986Z,8.93
2018-06-05T14:37:44.058Z,7.73
2018-06-05T14:40:13.174Z,7.30
2018-06-05T14:42:41.717Z,8.17
2018-06-05T14:45:10.362Z,9.00
2018-06-05T14:47:38.871Z,7.53
2018-06-05T14:50:08.145Z,6.83
2018-06-05T14:52:37.400Z,7.23
2018-06-05T14:55:06.050Z,8.13
2018-06-05T14:57:34.265Z,6.73
2018-06-05T15:00:03.446Z,10.47
2018-06-05T15:02:31.972Z,9.20
2018-06-05T15:05:00.547Z,11.27
2018-06-05T15:07:29.690Z,9.57
2018-06-05T15:09:57.899Z,11.03
2018-06-05T15:12:26.998Z,7.50
2018-06-05T15:14:55.545Z,6.83
2018-06-05T15:17:23.755Z,7.47
2018-06-05T15:19:53.061Z,8.93
2018-06-05T15:22:21.635Z,9.03
2018-06-05T15:24:50.238Z,8.57
2018-06-05T15:27:19.395Z,6.70
2018-06-05T15:29:47.982Z,7.77
2018-06-05T15:32:16.584Z,7.77
2018-06-05T15:34:45.197Z,9.83
2018-06-05T15:37:13.800Z,8.93
2018-06-05T15:39:42.353Z,7.63
2018-06-05T15:42:10.923Z,8.60
2018-06-05T15:44:39.474Z,11.10
2018-06-05T15:47:07.683Z,7.57
2018-06-05T15:49:36.265Z,7.23
2018-06-05T15:52:04.883Z,7.37
2018-06-05T15:54:33.414Z,10.43
2018-06-05T15:57:02.015Z,6.90
2018-06-05T15:59:30.578Z,7.90
2018-06-05T16:01:58.805Z,8.93
2018-06-05T16:04:27.356Z,7.70
2018-06-05T16:06:55.963Z,7.63
2018-06-05T16:09:24.519Z,10.10
2018-06-05T16:11:53.139Z,10.53
2018-06-05T16:14:22.614Z,9.57
2018-06-05T16:16:51.706Z,9.87
2018-06-05T16:19:21.497Z,9.80
2018-06-05T16:21:50.085Z,10.17
2018-06-05T16:24:18.659Z,11.03
2018-06-05T16:26:47.232Z,9.90
2018-06-05T16:29:15.784Z,8.67
2018-06-05T16:31:44.358Z,10.70
2018-06-05T16:34:12.973Z,10.17
2018-06-05T16:36:43.010Z,9.83
2018-06-05T16:39:11.647Z,11.30
2018-06-05T16:41:40.209Z,9.80
2018-06-05T16:44:08.768Z,7.77
2018-06-05T16:46:37.339Z,7.17
2018-06-05T16:49:05.909Z,9.47
2018-06-05T16:51:34.440Z,7.70
2018-06-05T16:54:03.018Z,6.07
2018-06-05T16:56:31.874Z,8.70
2018-06-05T16:59:00.422Z,7.93
2018-06-05T17:01:29.014Z,16.30
2018-06-05T17:03:58.097Z,13.13
2018-06-05T17:06:26.654Z,7.80
2018-06-05T17:08:54.882Z,7.77
2018-06-05T17:11:23.401Z,8.23
2018-06-05T17:13:51.975Z,8.43
2018-06-05T17:16:20.510Z,7.93
2018-06-05T17:18:49.072Z,8.70
2018-06-05T17:21:17.609Z,9.23
2018-06-05T17:23:46.154Z,9.30
2018-06-05T17:26:14.698Z,11.03
2018-06-05T17:28:43.257Z,8.43
2018-06-05T17:31:11.895Z,7.33
2018-06-05T17:33:40.460Z,7.43
2018-06-05T17:36:09.189Z,7.10
2018-06-05T17:38:37.774Z,6.90
2018-06-05T17:41:06.343Z,9.50
2018-06-05T17:43:35.641Z,6.67
2018-06-05T17:46:04.851Z,7.27
2018-06-05T17:48:33.470Z,7.77
2018-06-05T17:51:02.496Z,9.93
2018-06-05T17:53:30.978Z,9.37
2018-06-05T17:56:00.010Z,9.90
2018-06-05T17:58:29.407Z,8.00
2018-06-05T18:00:57.975Z,7.57
2018-06-05T18:03:26.198Z,6.77
2018-06-05T18:05:54.785Z,7.27
2018-06-05T18:08:23.316Z,6.13
2018-06-05T18:10:52.459Z,10.63
2018-06-05T18:13:21.061Z,9.33
2018-06-05T18:15:49.646Z,7.87
2018-06-05T18:18:19.168Z,12.07
2018-06-05T18:20:47.693Z,7.03
2018-06-05T18:23:16.702Z,7.33
2018-06-05T18:25:45.282Z,6.93
2018-06-05T18:28:13.865Z,9.93
2018-06-05T18:30:42.391Z,6.43
2018-06-05T18:33:11.003Z,7.23
2018-06-05T18:35:39.636Z,6.67
2018-06-05T18:38:08.215Z,7.43
2018-06-05T18:40:36.763Z,7.50
2018-06-05T18:43:06.118Z,6.13
2018-06-05T18:45:35.394Z,7.10
2018-06-05T18:48:04.650Z,7.10
2018-06-05T18:50:32.872Z,6.27
2018-06-05T18:53:01.423Z,15.57
2018-06-05T18:55:30.619Z,6.93
2018-06-05T18:57:59.186Z,9.43
2018-06-05T19:00:28.542Z,11.87
2018-06-05T19:02:57.119Z,7.37
2018-06-05T19:05:25.658Z,5.80
2018-06-05T19:07:53.923Z,5.83
2018-06-05T19:10:22.449Z,7.87
2018-06-05T19:12:51.104Z,5.40
2018-06-05T19:15:19.618Z,6.57
2018-06-05T19:17:48.219Z,7.60
2018-06-05T19:20:16.794Z,7.90
2018-06-05T19:22:45.371Z,5.50
2018-06-05T19:25:13.899Z,5.40
2018-06-05T19:27:42.459Z,5.80
2018-06-05T19:30:10.980Z,6.13
2018-06-05T19:32:39.552Z,4.77
2018-06-05T19:35:08.096Z,6.43
2018-06-05T19:37:37.194Z,10.63
2018-06-05T19:40:05.779Z,10.47
2018-06-05T19:42:34.315Z,5.97
2018-06-05T19:45:03.512Z,6.80
2018-06-05T19:47:32.796Z,7.87
2018-06-05T19:50:01.423Z,12.73
2018-06-05T19:52:29.716Z,8.10
2018-06-05T19:54:58.289Z,14.63
2018-06-05T19:57:26.846Z,6.70
2018-06-05T19:59:55.423Z,6.67
2018-06-05T20:02:25.887Z,10.47
2018-06-05T20:04:54.457Z,9.87
2018-06-05T20:07:22.657Z,6.83
2018-06-05T20:09:52.500Z,8.83
2018-06-05T20:12:21.033Z,10.10
2018-06-05T20:14:49.635Z,7.37
2018-06-05T20:17:18.171Z,9.97
2018-06-05T20:19:47.249Z,8.17
2018-06-05T20:22:15.808Z,7.37
2018-06-05T20:24:44.926Z,8.33
2018-06-05T20:27:13.462Z,5.87
2018-06-05T20:29:42.036Z,6.87
2018-06-05T20:32:10.622Z,11.57
2018-06-05T20:34:39.230Z,8.43
2018-06-05T20:37:07.784Z,10.40
2018-06-05T20:39:36.450Z,7.33
2018-06-05T20:42:05.070Z,8.70
2018-06-05T20:44:33.325Z,8.03
2018-06-05T20:47:01.898Z,11.03
2018-06-05T20:49:31.338Z,9.03
2018-06-05T20:51:59.567Z,7.40
2018-06-05T20:54:28.168Z,11.83
2018-06-05T20:56:56.726Z,6.73
2018-06-05T20:59:25.330Z,7.00
2018-06-05T21:01:53.912Z,6.83
2018-06-05T21:04:22.983Z,10.20
2018-06-05T21:06:51.533Z,11.40
2018-06-05T21:09:19.708Z,6.57
2018-06-05T21:11:48.614Z,7.67
2018-06-05T21:14:17.150Z,9.90
2018-06-05T21:16:45.715Z,11.03
2018-06-05T21:19:14.488Z,9.77
2018-06-05T21:21:43.101Z,8.53
2018-06-05T21:24:11.770Z,6.07
2018-06-05T21:26:41.054Z,7.73
2018-06-05T21:29:09.605Z,5.93
2018-06-05T21:31:38.161Z,7.13
2018-06-05T21:34:06.732Z,7.73
2018-06-05T21:36:35.722Z,7.27
2018-06-05T21:39:06.532Z,10.73
2018-06-05T21:41:35.097Z,6.80
2018-06-05T21:44:03.621Z,6.60
2018-06-05T21:46:32.202Z,9.07
2018-06-05T21:49:00.766Z,7.70
2018-06-05T21:51:29.348Z,7.70
2018-06-05T21:53:57.901Z,9.83
2018-06-05T21:56:26.485Z,10.17
2018-06-05T21:58:54.665Z,7.93
2018-06-05T22:01:22.893Z,9.17
2018-06-05T22:03:51.435Z,11.60
2018-06-05T22:06:20.005Z,8.83
2018-06-05T22:08:48.209Z,7.17
2018-06-05T22:11:16.914Z,8.70
2018-06-05T22:13:45.508Z,5.77
2018-06-05T22:16:14.117Z,13.00
2018-06-05T22:18:42.633Z,11.93
2018-06-05T22:21:11.181Z,7.50
2018-06-05T22:23:39.697Z,7.33
2018-06-05T22:26:08.263Z,13.80
2018-06-05T22:28:36.836Z,9.63
2018-06-05T22:31:05.377Z,7.63
2018-06-05T22:33:33.921Z,8.23
2018-06-05T22:36:02.173Z,7.57
2018-06-05T22:38:30.747Z,10.20
2018-06-05T22:40:59.332Z,7.80
2018-06-05T22:43:27.871Z,6.37
2018-06-05T22:45:56.450Z,8.63
2018-06-05T22:48:24.977Z,7.27
2018-06-05T22:50:53.537Z,13.13
2018-06-05T22:53:22.224Z,13.77
2018-06-05T22:55:51.329Z,7.37
2018-06-05T22:58:19.886Z,9.20
2018-06-05T23:00:48.442Z,9.33
2018-06-05T23:03:16.978Z,7.03
2018-06-05T23:05:45.496Z,8.60
2018-06-05T23:08:14.045Z,9.33
2018-06-05T23:10:42.574Z,11.00
2018-06-05T23:13:11.142Z,10.20
2018-06-05T23:15:39.653Z,8.77
2018-06-05T23:18:07.873Z,8.77
2018-06-05T23:20:36.403Z,10.10
2018-06-05T23:23:04.961Z,8.60
2018-06-05T23:25:33.489Z,11.10
2018-06-05T23:28:01.706Z,11.23
2018-06-05T23:30:30.239Z,9.80
2018-06-05T23:33:00.079Z,9.27
2018-06-05T23:35:29.090Z,11.30
2018-06-05T23:37:57.661Z,8.80
2018-06-05T23:40:26.220Z,8.97
2018-06-05T23:42:54.438Z,8.87
2018-06-05T23:45:23.185Z,11.43
2018-06-05T23:47:51.392Z,10.27
2018-06-05T23:50:19.928Z,10.03
2018-06-05T23:52:48.505Z,12.57
2018-06-05T23:55:17.034Z,9.87
2018-06-05T23:57:45.671Z,10.23
